首页
METAR-TAF:

METAR-TAF

机场 :

梅薩, 亞利桑那州, 美国

纬度: 33-19N, 经度: 111-39W, 海拔: 421米

当前天气观测

该预报发布于16分钟前的08:15 UTC
风速6节,风向东南
温度 27°C
湿度 30%
气压 1011 hPa
能見度: 16.1公里
天空无云

METAR: KIWA 190815Z AUTO 14006KT 10SM CLR 27/08 A2986 RMK AO2 T02660077

时间: 01:31 (08:31 UTC)

预报

该预报发布于2小时和50分钟前的05:41 UTC
预报有效从19日的 06点(UTC)到 20日的 06点(UTC)
风速6节,风向东南
能見度: 10公里
少量云层高于25000英尺
从 19日的 1800点(UTC)
风速5节,风向西转西北
能見度: 10公里
少量云层高于12000英尺
少量云层高于25000英尺

TAF: KIWA 190541Z 1906/2006 13006KT P6SM FEW250 FM191800 29005KT P6SM FEW120 FEW250 AMD LTD TO CLD VIS AND WIND TIL 191200

超过4000个机场的气象观测和天气预报(METAR&TAF报告)。

可查询的气象台以黄色和红色小点在地图上表示。

将鼠标移到小点上方,可查看气象台名称。

然后点击查看天气观测和预报。

如需切换地图:点击带黑十字的绿色按钮放大地图;点击带横线的绿色按钮缩小地图;或者点击绿色箭头查看邻近地区的地图。


METAR-TAF: